sensor_id;sensor_type;location;lat;lon;timestamp;temperature;humidity
22966;DHT22;11649;48.090;9.754;2024-02-21T00:02:22;4.80;99.90
22966;DHT22;11649;48.090;9.754;2024-02-21T00:04:49;4.70;99.90
22966;DHT22;11649;48.090;9.754;2024-02-21T00:07:16;4.80;99.90
22966;DHT22;11649;48.090;9.754;2024-02-21T00:09:43;4.90;99.90
22966;DHT22;11649;48.090;9.754;2024-02-21T00:12:10;4.90;99.90
22966;DHT22;11649;48.090;9.754;2024-02-21T00:14:37;4.80;99.90
22966;DHT22;11649;48.090;9.754;2024-02-21T00:17:03;4.90;99.90
22966;DHT22;11649;48.090;9.754;2024-02-21T00:19:30;4.90;99.90
22966;DHT22;11649;48.090;9.754;2024-02-21T00:21:57;5.00;99.90
22966;DHT22;11649;48.090;9.754;2024-02-21T00:24:24;5.00;99.90
22966;DHT22;11649;48.090;9.754;2024-02-21T00:26:51;4.90;99.90
22966;DHT22;11649;48.090;9.754;2024-02-21T00:29:17;4.90;99.90
22966;DHT22;11649;48.090;9.754;2024-02-21T00:31:44;4.80;99.90
22966;DHT22;11649;48.090;9.754;2024-02-21T00:34:11;4.70;99.90
22966;DHT22;11649;48.090;9.754;2024-02-21T00:36:40;4.70;99.90
22966;DHT22;11649;48.090;9.754;2024-02-21T00:39:06;4.60;99.90
22966;DHT22;11649;48.090;9.754;2024-02-21T00:41:33;4.60;99.90
22966;DHT22;11649;48.090;9.754;2024-02-21T00:44:00;4.60;99.90
22966;DHT22;11649;48.090;9.754;2024-02-21T00:46:27;4.60;99.90
22966;DHT22;11649;48.090;9.754;2024-02-21T00:48:54;4.50;99.90
22966;DHT22;11649;48.090;9.754;2024-02-21T00:51:20;4.50;99.90
22966;DHT22;11649;48.090;9.754;2024-02-21T00:53:47;4.50;99.90
22966;DHT22;11649;48.090;9.754;2024-02-21T00:56:14;4.50;99.90
22966;DHT22;11649;48.090;9.754;2024-02-21T00:58:41;4.50;99.90
22966;DHT22;11649;48.090;9.754;2024-02-21T01:01:07;4.40;99.90
22966;DHT22;11649;48.090;9.754;2024-02-21T01:03:34;4.40;99.90
22966;DHT22;11649;48.090;9.754;2024-02-21T01:06:01;4.40;99.90
22966;DHT22;11649;48.090;9.754;2024-02-21T01:08:28;4.30;99.90
22966;DHT22;11649;48.090;9.754;2024-02-21T01:10:55;4.30;99.90
22966;DHT22;11649;48.090;9.754;2024-02-21T01:13:22;4.40;99.90
22966;DHT22;11649;48.090;9.754;2024-02-21T01:15:48;4.40;99.90
22966;DHT22;11649;48.090;9.754;2024-02-21T01:18:15;4.50;99.90
22966;DHT22;11649;48.090;9.754;2024-02-21T01:20:42;4.40;99.90
22966;DHT22;11649;48.090;9.754;2024-02-21T01:23:09;4.40;99.90
22966;DHT22;11649;48.090;9.754;2024-02-21T01:25:35;4.20;99.90
22966;DHT22;11649;48.090;9.754;2024-02-21T01:28:03;4.20;99.90
22966;DHT22;11649;48.090;9.754;2024-02-21T01:30:30;4.10;99.90
22966;DHT22;11649;48.090;9.754;2024-02-21T01:32:56;4.00;99.90
22966;DHT22;11649;48.090;9.754;2024-02-21T01:35:23;4.30;99.90
22966;DHT22;11649;48.090;9.754;2024-02-21T01:37:50;4.40;99.90
22966;DHT22;11649;48.090;9.754;2024-02-21T01:40:18;4.50;99.90
22966;DHT22;11649;48.090;9.754;2024-02-21T01:42:45;4.70;99.90
22966;DHT22;11649;48.090;9.754;2024-02-21T01:45:14;4.70;99.90
22966;DHT22;11649;48.090;9.754;2024-02-21T01:47:44;4.70;99.90
22966;DHT22;11649;48.090;9.754;2024-02-21T01:50:14;4.80;99.90
22966;DHT22;11649;48.090;9.754;2024-02-21T01:52:42;4.90;99.90
22966;DHT22;11649;48.090;9.754;2024-02-21T01:55:11;5.00;99.90
22966;DHT22;11649;48.090;9.754;2024-02-21T01:57:44;5.10;99.90
22966;DHT22;11649;48.090;9.754;2024-02-21T02:00:14;5.10;99.90
22966;DHT22;11649;48.090;9.754;2024-02-21T02:02:42;4.90;99.90
22966;DHT22;11649;48.090;9.754;2024-02-21T02:05:09;4.80;99.90
22966;DHT22;11649;48.090;9.754;2024-02-21T02:07:36;4.90;99.90
22966;DHT22;11649;48.090;9.754;2024-02-21T02:10:03;4.90;99.90
22966;DHT22;11649;48.090;9.754;2024-02-21T02:12:30;4.90;99.90
22966;DHT22;11649;48.090;9.754;2024-02-21T02:15:01;4.90;99.90
22966;DHT22;11649;48.090;9.754;2024-02-21T02:17:31;4.90;99.90
22966;DHT22;11649;48.090;9.754;2024-02-21T02:19:58;4.90;99.90
22966;DHT22;11649;48.090;9.754;2024-02-21T02:22:29;4.90;99.90
22966;DHT22;11649;48.090;9.754;2024-02-21T02:24:59;4.90;99.90
22966;DHT22;11649;48.090;9.754;2024-02-21T02:27:25;4.90;99.90
22966;DHT22;11649;48.090;9.754;2024-02-21T02:29:52;4.90;99.90
22966;DHT22;11649;48.090;9.754;2024-02-21T02:32:19;4.90;99.90
22966;DHT22;11649;48.090;9.754;2024-02-21T02:34:46;5.00;99.90
22966;DHT22;11649;48.090;9.754;2024-02-21T02:37:13;5.00;99.90
22966;DHT22;11649;48.090;9.754;2024-02-21T02:39:40;4.90;99.90
22966;DHT22;11649;48.090;9.754;2024-02-21T02:42:06;4.90;99.90
22966;DHT22;11649;48.090;9.754;2024-02-21T02:44:33;5.00;99.90
22966;DHT22;11649;48.090;9.754;2024-02-21T02:47:00;5.10;99.90
22966;DHT22;11649;48.090;9.754;2024-02-21T02:49:27;5.10;99.90
22966;DHT22;11649;48.090;9.754;2024-02-21T02:51:53;5.10;99.90
22966;DHT22;11649;48.090;9.754;2024-02-21T02:54:20;5.10;99.90
22966;DHT22;11649;48.090;9.754;2024-02-21T02:56:47;5.10;99.90
22966;DHT22;11649;48.090;9.754;2024-02-21T02:59:13;5.00;99.90
22966;DHT22;11649;48.090;9.754;2024-02-21T03:01:40;5.00;99.90
22966;DHT22;11649;48.090;9.754;2024-02-21T03:04:07;5.00;99.90
22966;DHT22;11649;48.090;9.754;2024-02-21T03:06:35;5.00;99.90
22966;DHT22;11649;48.090;9.754;2024-02-21T03:09:02;5.00;99.90
22966;DHT22;11649;48.090;9.754;2024-02-21T03:11:35;5.00;99.90
22966;DHT22;11649;48.090;9.754;2024-02-21T03:14:03;5.00;99.90
22966;DHT22;11649;48.090;9.754;2024-02-21T03:16:30;4.90;99.90
22966;DHT22;11649;48.090;9.754;2024-02-21T03:18:57;4.90;99.90
22966;DHT22;11649;48.090;9.754;2024-02-21T03:21:23;4.80;99.90
22966;DHT22;11649;48.090;9.754;2024-02-21T03:23:50;4.90;99.90
22966;DHT22;11649;48.090;9.754;2024-02-21T03:26:17;5.00;99.90
22966;DHT22;11649;48.090;9.754;2024-02-21T03:28:44;4.90;99.90
22966;DHT22;11649;48.090;9.754;2024-02-21T03:31:15;4.90;99.90
22966;DHT22;11649;48.090;9.754;2024-02-21T03:33:42;4.90;99.90
22966;DHT22;11649;48.090;9.754;2024-02-21T03:36:13;4.90;99.90
22966;DHT22;11649;48.090;9.754;2024-02-21T03:38:41;4.80;99.90
22966;DHT22;11649;48.090;9.754;2024-02-21T03:41:08;4.90;99.90
22966;DHT22;11649;48.090;9.754;2024-02-21T03:43:34;4.90;99.90
22966;DHT22;11649;48.090;9.754;2024-02-21T03:46:01;4.90;99.90
22966;DHT22;11649;48.090;9.754;2024-02-21T03:48:28;5.20;99.90
22966;DHT22;11649;48.090;9.754;2024-02-21T03:50:55;4.70;99.90
22966;DHT22;11649;48.090;9.754;2024-02-21T03:53:21;4.80;99.90
22966;DHT22;11649;48.090;9.754;2024-02-21T03:55:48;5.00;99.90
22966;DHT22;11649;48.090;9.754;2024-02-21T03:58:15;5.10;99.90
22966;DHT22;11649;48.090;9.754;2024-02-21T04:00:42;5.10;99.90
22966;DHT22;11649;48.090;9.754;2024-02-21T04:03:09;5.00;99.90
22966;DHT22;11649;48.090;9.754;2024-02-21T04:05:35;5.10;99.90
22966;DHT22;11649;48.090;9.754;2024-02-21T04:08:06;5.10;99.90
22966;DHT22;11649;48.090;9.754;2024-02-21T04:10:32;5.10;99.90
22966;DHT22;11649;48.090;9.754;2024-02-21T04:12:59;5.10;99.90
22966;DHT22;11649;48.090;9.754;2024-02-21T04:15:27;5.10;99.90
22966;DHT22;11649;48.090;9.754;2024-02-21T04:17:54;4.90;99.90
22966;DHT22;11649;48.090;9.754;2024-02-21T04:20:20;4.60;99.90
22966;DHT22;11649;48.090;9.754;2024-02-21T04:22:47;4.80;99.90
22966;DHT22;11649;48.090;9.754;2024-02-21T04:25:14;4.80;99.90
22966;DHT22;11649;48.090;9.754;2024-02-21T04:27:42;4.60;99.90
22966;DHT22;11649;48.090;9.754;2024-02-21T04:30:09;4.50;99.90
22966;DHT22;11649;48.090;9.754;2024-02-21T04:32:36;4.60;99.90
22966;DHT22;11649;48.090;9.754;2024-02-21T04:35:03;4.80;99.90
22966;DHT22;11649;48.090;9.754;2024-02-21T04:37:30;4.80;99.90
22966;DHT22;11649;48.090;9.754;2024-02-21T04:39:57;4.90;99.90
22966;DHT22;11649;48.090;9.754;2024-02-21T04:42:24;4.90;99.90
22966;DHT22;11649;48.090;9.754;2024-02-21T04:44:51;5.00;99.90
22966;DHT22;11649;48.090;9.754;2024-02-21T04:47:18;5.00;99.90
22966;DHT22;11649;48.090;9.754;2024-02-21T04:49:46;5.10;99.90
22966;DHT22;11649;48.090;9.754;2024-02-21T04:52:13;5.20;99.90
22966;DHT22;11649;48.090;9.754;2024-02-21T04:54:40;5.20;99.90
22966;DHT22;11649;48.090;9.754;2024-02-21T04:57:07;5.30;99.90
22966;DHT22;11649;48.090;9.754;2024-02-21T04:59:34;5.40;99.90
22966;DHT22;11649;48.090;9.754;2024-02-21T05:02:02;5.40;99.90
22966;DHT22;11649;48.090;9.754;2024-02-21T05:04:29;5.30;99.90
22966;DHT22;11649;48.090;9.754;2024-02-21T05:06:56;5.20;99.90
22966;DHT22;11649;48.090;9.754;2024-02-21T05:09:23;5.30;99.90
22966;DHT22;11649;48.090;9.754;2024-02-21T05:11:50;5.40;99.90
22966;DHT22;11649;48.090;9.754;2024-02-21T05:14:16;5.40;99.90
22966;DHT22;11649;48.090;9.754;2024-02-21T05:16:43;5.40;99.90
22966;DHT22;11649;48.090;9.754;2024-02-21T05:19:10;5.30;99.90
22966;DHT22;11649;48.090;9.754;2024-02-21T05:21:37;5.40;99.90
22966;DHT22;11649;48.090;9.754;2024-02-21T05:24:04;5.30;99.90
22966;DHT22;11649;48.090;9.754;2024-02-21T05:26:31;5.30;99.90
22966;DHT22;11649;48.090;9.754;2024-02-21T05:28:58;5.30;99.90
22966;DHT22;11649;48.090;9.754;2024-02-21T05:31:26;5.20;99.90
22966;DHT22;11649;48.090;9.754;2024-02-21T05:34:08;5.20;99.90
22966;DHT22;11649;48.090;9.754;2024-02-21T05:36:36;5.10;99.90
22966;DHT22;11649;48.090;9.754;2024-02-21T05:39:02;5.10;99.90
22966;DHT22;11649;48.090;9.754;2024-02-21T05:41:29;5.10;99.90
22966;DHT22;11649;48.090;9.754;2024-02-21T05:43:56;5.00;99.90
22966;DHT22;11649;48.090;9.754;2024-02-21T05:46:23;4.70;99.90
22966;DHT22;11649;48.090;9.754;2024-02-21T05:48:50;4.70;99.90
22966;DHT22;11649;48.090;9.754;2024-02-21T05:51:16;4.80;99.90
22966;DHT22;11649;48.090;9.754;2024-02-21T05:53:43;4.70;99.90
22966;DHT22;11649;48.090;9.754;2024-02-21T05:56:11;4.60;99.90
22966;DHT22;11649;48.090;9.754;2024-02-21T05:58:38;4.60;99.90
22966;DHT22;11649;48.090;9.754;2024-02-21T06:01:05;4.50;99.90
22966;DHT22;11649;48.090;9.754;2024-02-21T06:03:34;4.50;99.90
22966;DHT22;11649;48.090;9.754;2024-02-21T06:06:00;4.50;99.90
22966;DHT22;11649;48.090;9.754;2024-02-21T06:08:27;4.50;99.90
22966;DHT22;11649;48.090;9.754;2024-02-21T06:10:54;4.40;99.90
22966;DHT22;11649;48.090;9.754;2024-02-21T06:13:22;4.30;99.90
22966;DHT22;11649;48.090;9.754;2024-02-21T06:15:50;4.40;99.90
22966;DHT22;11649;48.090;9.754;2024-02-21T06:18:18;4.50;99.90
22966;DHT22;11649;48.090;9.754;2024-02-21T06:20:46;4.50;99.90
22966;DHT22;11649;48.090;9.754;2024-02-21T06:23:15;4.50;99.90
22966;DHT22;11649;48.090;9.754;2024-02-21T06:25:43;4.60;99.90
22966;DHT22;11649;48.090;9.754;2024-02-21T06:28:10;4.60;99.90
22966;DHT22;11649;48.090;9.754;2024-02-21T06:30:36;4.60;99.90
22966;DHT22;11649;48.090;9.754;2024-02-21T06:33:03;4.60;99.90
22966;DHT22;11649;48.090;9.754;2024-02-21T06:35:30;4.60;99.90
22966;DHT22;11649;48.090;9.754;2024-02-21T06:37:57;4.70;99.90
22966;DHT22;11649;48.090;9.754;2024-02-21T06:40:24;4.60;99.90
22966;DHT22;11649;48.090;9.754;2024-02-21T06:42:51;4.60;99.90
22966;DHT22;11649;48.090;9.754;2024-02-21T06:45:17;4.60;99.90
22966;DHT22;11649;48.090;9.754;2024-02-21T06:47:44;4.50;99.90
22966;DHT22;11649;48.090;9.754;2024-02-21T06:50:11;4.50;99.90
22966;DHT22;11649;48.090;9.754;2024-02-21T06:52:38;4.30;99.90
22966;DHT22;11649;48.090;9.754;2024-02-21T06:55:05;4.00;99.90
22966;DHT22;11649;48.090;9.754;2024-02-21T06:57:32;4.30;99.90
22966;DHT22;11649;48.090;9.754;2024-02-21T06:59:58;4.40;99.90
22966;DHT22;11649;48.090;9.754;2024-02-21T07:02:25;4.40;99.90
22966;DHT22;11649;48.090;9.754;2024-02-21T07:04:52;4.30;99.90
22966;DHT22;11649;48.090;9.754;2024-02-21T07:07:19;4.40;99.90
22966;DHT22;11649;48.090;9.754;2024-02-21T07:09:46;4.40;99.90
22966;DHT22;11649;48.090;9.754;2024-02-21T07:12:15;4.30;99.90
22966;DHT22;11649;48.090;9.754;2024-02-21T07:14:41;4.40;99.90
22966;DHT22;11649;48.090;9.754;2024-02-21T07:17:08;4.30;99.90
22966;DHT22;11649;48.090;9.754;2024-02-21T07:19:35;4.50;99.90
22966;DHT22;11649;48.090;9.754;2024-02-21T07:22:02;4.60;99.90
22966;DHT22;11649;48.090;9.754;2024-02-21T07:24:29;4.70;99.90
22966;DHT22;11649;48.090;9.754;2024-02-21T07:26:56;4.80;99.90
22966;DHT22;11649;48.090;9.754;2024-02-21T07:29:23;4.70;99.90
22966;DHT22;11649;48.090;9.754;2024-02-21T07:31:50;4.70;99.90
22966;DHT22;11649;48.090;9.754;2024-02-21T07:34:18;4.80;99.90
22966;DHT22;11649;48.090;9.754;2024-02-21T07:36:45;5.00;99.90
22966;DHT22;11649;48.090;9.754;2024-02-21T07:39:12;5.00;99.90
22966;DHT22;11649;48.090;9.754;2024-02-21T07:41:39;4.90;99.90
22966;DHT22;11649;48.090;9.754;2024-02-21T07:44:06;4.70;99.90
22966;DHT22;11649;48.090;9.754;2024-02-21T07:46:33;4.80;99.90
22966;DHT22;11649;48.090;9.754;2024-02-21T07:49:00;4.90;99.90
22966;DHT22;11649;48.090;9.754;2024-02-21T07:51:28;4.90;99.90
22966;DHT22;11649;48.090;9.754;2024-02-21T07:53:55;5.00;99.90
22966;DHT22;11649;48.090;9.754;2024-02-21T07:56:22;5.10;99.90
22966;DHT22;11649;48.090;9.754;2024-02-21T07:58:49;5.10;99.90
22966;DHT22;11649;48.090;9.754;2024-02-21T08:01:19;5.20;99.90
22966;DHT22;11649;48.090;9.754;2024-02-21T08:03:49;5.20;99.90
22966;DHT22;11649;48.090;9.754;2024-02-21T08:06:16;5.10;99.90
22966;DHT22;11649;48.090;9.754;2024-02-21T08:08:42;5.20;99.90
22966;DHT22;11649;48.090;9.754;2024-02-21T08:11:09;5.00;99.90
22966;DHT22;11649;48.090;9.754;2024-02-21T08:13:36;4.90;99.90
22966;DHT22;11649;48.090;9.754;2024-02-21T08:16:03;5.10;99.90
22966;DHT22;11649;48.090;9.754;2024-02-21T08:18:30;5.30;99.90
22966;DHT22;11649;48.090;9.754;2024-02-21T08:20:58;5.50;99.90
22966;DHT22;11649;48.090;9.754;2024-02-21T08:23:25;5.80;99.90
22966;DHT22;11649;48.090;9.754;2024-02-21T08:25:51;5.90;99.90
22966;DHT22;11649;48.090;9.754;2024-02-21T08:28:18;5.80;99.90
22966;DHT22;11649;48.090;9.754;2024-02-21T08:30:45;5.60;99.90
22966;DHT22;11649;48.090;9.754;2024-02-21T08:33:15;5.70;99.90
22966;DHT22;11649;48.090;9.754;2024-02-21T08:35:43;6.00;99.90
22966;DHT22;11649;48.090;9.754;2024-02-21T08:38:10;5.90;99.90
22966;DHT22;11649;48.090;9.754;2024-02-21T08:40:37;5.90;99.90
22966;DHT22;11649;48.090;9.754;2024-02-21T08:43:04;6.00;99.90
22966;DHT22;11649;48.090;9.754;2024-02-21T08:45:31;6.30;99.90
22966;DHT22;11649;48.090;9.754;2024-02-21T08:47:58;6.40;99.90
22966;DHT22;11649;48.090;9.754;2024-02-21T08:50:24;6.40;99.90
22966;DHT22;11649;48.090;9.754;2024-02-21T08:52:55;6.40;99.90
22966;DHT22;11649;48.090;9.754;2024-02-21T08:55:22;6.50;99.90
22966;DHT22;11649;48.090;9.754;2024-02-21T08:57:49;6.50;99.90
22966;DHT22;11649;48.090;9.754;2024-02-21T09:00:19;6.90;99.90
22966;DHT22;11649;48.090;9.754;2024-02-21T09:02:50;7.40;98.10
22966;DHT22;11649;48.090;9.754;2024-02-21T09:05:17;7.50;97.60
22966;DHT22;11649;48.090;9.754;2024-02-21T09:07:46;7.50;96.50
22966;DHT22;11649;48.090;9.754;2024-02-21T09:10:12;7.60;96.00
22966;DHT22;11649;48.090;9.754;2024-02-21T09:12:39;7.70;95.60
22966;DHT22;11649;48.090;9.754;2024-02-21T09:15:07;7.60;95.80
22966;DHT22;11649;48.090;9.754;2024-02-21T09:17:34;7.30;97.60
22966;DHT22;11649;48.090;9.754;2024-02-21T09:20:00;7.20;99.20
22966;DHT22;11649;48.090;9.754;2024-02-21T09:22:30;7.40;97.70
22966;DHT22;11649;48.090;9.754;2024-02-21T09:24:58;7.60;96.80
22966;DHT22;11649;48.090;9.754;2024-02-21T09:27:25;7.70;97.20
22966;DHT22;11649;48.090;9.754;2024-02-21T09:29:52;7.90;96.50
22966;DHT22;11649;48.090;9.754;2024-02-21T09:32:19;8.00;96.80
22966;DHT22;11649;48.090;9.754;2024-02-21T09:34:46;8.10;95.80
22966;DHT22;11649;48.090;9.754;2024-02-21T09:37:13;8.20;95.80
22966;DHT22;11649;48.090;9.754;2024-02-21T09:39:40;8.40;94.60
22966;DHT22;11649;48.090;9.754;2024-02-21T09:42:06;8.10;96.30
22966;DHT22;11649;48.090;9.754;2024-02-21T09:44:37;7.90;97.30
22966;DHT22;11649;48.090;9.754;2024-02-21T09:50:14;8.10;96.20
22966;DHT22;11649;48.090;9.754;2024-02-21T09:52:43;7.80;97.80
22966;DHT22;11649;48.090;9.754;2024-02-21T09:55:10;8.20;96.40
22966;DHT22;11649;48.090;9.754;2024-02-21T09:57:39;8.20;96.70
22966;DHT22;11649;48.090;9.754;2024-02-21T10:00:07;8.20;97.00
22966;DHT22;11649;48.090;9.754;2024-02-21T10:02:34;8.50;95.80
22966;DHT22;11649;48.090;9.754;2024-02-21T10:05:01;8.60;94.70
22966;DHT22;11649;48.090;9.754;2024-02-21T10:07:30;8.90;93.60
22966;DHT22;11649;48.090;9.754;2024-02-21T10:10:06;9.10;93.40
22966;DHT22;11649;48.090;9.754;2024-02-21T10:12:33;9.20;94.00
22966;DHT22;11649;48.090;9.754;2024-02-21T10:15:04;9.70;90.90
22966;DHT22;11649;48.090;9.754;2024-02-21T10:17:32;9.90;90.40
22966;DHT22;11649;48.090;9.754;2024-02-21T10:20:11;10.40;90.20
22966;DHT22;11649;48.090;9.754;2024-02-21T10:22:39;10.50;88.20
22966;DHT22;11649;48.090;9.754;2024-02-21T10:25:10;10.50;86.50
22966;DHT22;11649;48.090;9.754;2024-02-21T10:27:38;10.60;84.20
22966;DHT22;11649;48.090;9.754;2024-02-21T10:30:07;10.80;83.70
22966;DHT22;11649;48.090;9.754;2024-02-21T10:32:49;10.40;84.20
22966;DHT22;11649;48.090;9.754;2024-02-21T10:35:30;10.40;87.50
22966;DHT22;11649;48.090;9.754;2024-02-21T10:37:58;10.60;86.60
22966;DHT22;11649;48.090;9.754;2024-02-21T10:40:26;10.90;82.50
22966;DHT22;11649;48.090;9.754;2024-02-21T10:43:02;11.20;80.40
22966;DHT22;11649;48.090;9.754;2024-02-21T10:45:32;10.90;86.20
22966;DHT22;11649;48.090;9.754;2024-02-21T10:48:14;10.90;80.70
22966;DHT22;11649;48.090;9.754;2024-02-21T10:51:03;10.40;83.90
22966;DHT22;11649;48.090;9.754;2024-02-21T10:54:07;10.10;86.80
22966;DHT22;11649;48.090;9.754;2024-02-21T10:56:38;10.10;90.50
22966;DHT22;11649;48.090;9.754;2024-02-21T10:59:07;10.50;84.00
22966;DHT22;11649;48.090;9.754;2024-02-21T11:01:35;10.20;85.80
22966;DHT22;11649;48.090;9.754;2024-02-21T11:04:10;10.10;89.50
22966;DHT22;11649;48.090;9.754;2024-02-21T11:06:40;10.00;90.60
22966;DHT22;11649;48.090;9.754;2024-02-21T11:09:09;10.30;89.20
22966;DHT22;11649;48.090;9.754;2024-02-21T11:11:39;10.60;88.20
22966;DHT22;11649;48.090;9.754;2024-02-21T11:14:20;10.60;85.30
22966;DHT22;11649;48.090;9.754;2024-02-21T11:16:47;10.90;81.90
22966;DHT22;11649;48.090;9.754;2024-02-21T11:19:25;10.90;80.90
22966;DHT22;11649;48.090;9.754;2024-02-21T11:21:53;10.80;84.40
22966;DHT22;11649;48.090;9.754;2024-02-21T11:24:28;10.70;85.10
22966;DHT22;11649;48.090;9.754;2024-02-21T11:26:56;10.50;83.80
22966;DHT22;11649;48.090;9.754;2024-02-21T11:29:43;10.30;84.10
22966;DHT22;11649;48.090;9.754;2024-02-21T11:32:19;10.30;86.00
22966;DHT22;11649;48.090;9.754;2024-02-21T11:35:00;10.30;85.00
22966;DHT22;11649;48.090;9.754;2024-02-21T11:37:35;10.20;88.90
22966;DHT22;11649;48.090;9.754;2024-02-21T11:40:06;10.20;89.50
22966;DHT22;11649;48.090;9.754;2024-02-21T11:42:37;10.30;90.40
22966;DHT22;11649;48.090;9.754;2024-02-21T11:45:05;10.40;88.60
22966;DHT22;11649;48.090;9.754;2024-02-21T11:47:31;10.40;88.10
22966;DHT22;11649;48.090;9.754;2024-02-21T11:49:58;10.50;89.30
22966;DHT22;11649;48.090;9.754;2024-02-21T11:52:26;10.10;90.40
22966;DHT22;11649;48.090;9.754;2024-02-21T11:54:54;10.70;88.10
22966;DHT22;11649;48.090;9.754;2024-02-21T11:57:23;10.90;86.10
22966;DHT22;11649;48.090;9.754;2024-02-21T11:59:51;10.90;84.00
22966;DHT22;11649;48.090;9.754;2024-02-21T12:02:23;10.80;86.30
22966;DHT22;11649;48.090;9.754;2024-02-21T12:04:50;10.50;87.70
22966;DHT22;11649;48.090;9.754;2024-02-21T12:07:18;10.90;84.90
22966;DHT22;11649;48.090;9.754;2024-02-21T12:09:45;11.10;82.80
22966;DHT22;11649;48.090;9.754;2024-02-21T12:12:12;11.00;82.90
22966;DHT22;11649;48.090;9.754;2024-02-21T12:14:39;11.20;80.90
22966;DHT22;11649;48.090;9.754;2024-02-21T12:17:06;11.00;81.10
22966;DHT22;11649;48.090;9.754;2024-02-21T12:19:34;11.20;79.40
22966;DHT22;11649;48.090;9.754;2024-02-21T12:22:01;11.00;78.40
22966;DHT22;11649;48.090;9.754;2024-02-21T12:24:33;11.10;81.30
22966;DHT22;11649;48.090;9.754;2024-02-21T12:27:00;11.30;79.10
22966;DHT22;11649;48.090;9.754;2024-02-21T12:29:30;11.30;78.80
22966;DHT22;11649;48.090;9.754;2024-02-21T12:31:56;11.40;75.90
22966;DHT22;11649;48.090;9.754;2024-02-21T12:34:24;11.30;75.40
22966;DHT22;11649;48.090;9.754;2024-02-21T12:37:10;11.70;75.80
22966;DHT22;11649;48.090;9.754;2024-02-21T12:39:38;11.90;76.10
22966;DHT22;11649;48.090;9.754;2024-02-21T12:42:05;11.70;71.30
22966;DHT22;11649;48.090;9.754;2024-02-21T12:44:32;12.20;70.70
22966;DHT22;11649;48.090;9.754;2024-02-21T12:46:59;12.20;71.20
22966;DHT22;11649;48.090;9.754;2024-02-21T12:49:26;12.10;71.70
22966;DHT22;11649;48.090;9.754;2024-02-21T12:51:56;12.10;71.90
22966;DHT22;11649;48.090;9.754;2024-02-21T12:54:23;12.10;73.10
22966;DHT22;11649;48.090;9.754;2024-02-21T12:56:50;12.00;76.70
22966;DHT22;11649;48.090;9.754;2024-02-21T12:59:17;12.10;74.30
22966;DHT22;11649;48.090;9.754;2024-02-21T13:01:43;12.30;71.90
22966;DHT22;11649;48.090;9.754;2024-02-21T13:04:10;12.40;68.80
22966;DHT22;11649;48.090;9.754;2024-02-21T13:06:39;12.30;69.80
22966;DHT22;11649;48.090;9.754;2024-02-21T13:09:06;12.00;70.90
22966;DHT22;11649;48.090;9.754;2024-02-21T13:11:38;11.90;70.60
22966;DHT22;11649;48.090;9.754;2024-02-21T13:14:05;11.80;71.80
22966;DHT22;11649;48.090;9.754;2024-02-21T13:16:31;11.90;73.50
22966;DHT22;11649;48.090;9.754;2024-02-21T13:19:00;12.10;70.70
22966;DHT22;11649;48.090;9.754;2024-02-21T13:21:27;12.10;72.90
22966;DHT22;11649;48.090;9.754;2024-02-21T13:23:54;12.40;71.20
22966;DHT22;11649;48.090;9.754;2024-02-21T13:26:22;12.30;68.60
22966;DHT22;11649;48.090;9.754;2024-02-21T13:28:49;12.10;70.90
22966;DHT22;11649;48.090;9.754;2024-02-21T13:31:16;12.30;70.00
22966;DHT22;11649;48.090;9.754;2024-02-21T13:33:43;12.00;72.00
22966;DHT22;11649;48.090;9.754;2024-02-21T13:36:11;12.00;71.40
22966;DHT22;11649;48.090;9.754;2024-02-21T13:38:38;12.10;71.70
22966;DHT22;11649;48.090;9.754;2024-02-21T13:41:05;11.90;71.50
22966;DHT22;11649;48.090;9.754;2024-02-21T13:43:35;12.00;73.00
22966;DHT22;11649;48.090;9.754;2024-02-21T13:46:02;11.60;71.10
22966;DHT22;11649;48.090;9.754;2024-02-21T13:48:31;11.60;73.20
22966;DHT22;11649;48.090;9.754;2024-02-21T13:51:00;11.50;72.50
22966;DHT22;11649;48.090;9.754;2024-02-21T13:53:28;11.70;73.00
22966;DHT22;11649;48.090;9.754;2024-02-21T13:55:55;11.80;71.90
22966;DHT22;11649;48.090;9.754;2024-02-21T13:58:22;11.80;72.40
22966;DHT22;11649;48.090;9.754;2024-02-21T14:00:49;11.80;69.90
22966;DHT22;11649;48.090;9.754;2024-02-21T14:03:17;11.60;71.50
22966;DHT22;11649;48.090;9.754;2024-02-21T14:05:45;11.50;72.20
22966;DHT22;11649;48.090;9.754;2024-02-21T14:08:15;11.60;71.40
22966;DHT22;11649;48.090;9.754;2024-02-21T14:10:42;11.80;70.20
22966;DHT22;11649;48.090;9.754;2024-02-21T14:13:09;11.90;67.80
22966;DHT22;11649;48.090;9.754;2024-02-21T14:15:36;11.80;69.00
22966;DHT22;11649;48.090;9.754;2024-02-21T14:18:04;11.40;69.90
22966;DHT22;11649;48.090;9.754;2024-02-21T14:20:36;11.50;70.60
22966;DHT22;11649;48.090;9.754;2024-02-21T14:23:03;11.30;70.10
22966;DHT22;11649;48.090;9.754;2024-02-21T14:25:31;11.40;68.70
22966;DHT22;11649;48.090;9.754;2024-02-21T14:28:00;11.40;70.20
22966;DHT22;11649;48.090;9.754;2024-02-21T14:30:27;11.40;69.10
22966;DHT22;11649;48.090;9.754;2024-02-21T14:32:54;11.50;68.00
22966;DHT22;11649;48.090;9.754;2024-02-21T14:35:21;11.50;67.10
22966;DHT22;11649;48.090;9.754;2024-02-21T14:37:47;11.50;68.70
22966;DHT22;11649;48.090;9.754;2024-02-21T14:40:19;11.40;68.50
22966;DHT22;11649;48.090;9.754;2024-02-21T14:42:47;11.60;67.80
22966;DHT22;11649;48.090;9.754;2024-02-21T14:45:14;11.40;69.10
22966;DHT22;11649;48.090;9.754;2024-02-21T14:47:41;11.20;69.50
22966;DHT22;11649;48.090;9.754;2024-02-21T14:50:08;11.20;69.10
22966;DHT22;11649;48.090;9.754;2024-02-21T14:52:35;11.30;69.30
22966;DHT22;11649;48.090;9.754;2024-02-21T14:55:03;11.20;69.40
22966;DHT22;11649;48.090;9.754;2024-02-21T14:57:31;11.10;71.70
22966;DHT22;11649;48.090;9.754;2024-02-21T14:59:58;11.10;72.40
22966;DHT22;11649;48.090;9.754;2024-02-21T15:02:27;11.30;71.20
22966;DHT22;11649;48.090;9.754;2024-02-21T15:04:55;11.40;71.20
22966;DHT22;11649;48.090;9.754;2024-02-21T15:07:22;11.30;71.10
22966;DHT22;11649;48.090;9.754;2024-02-21T15:09:51;11.40;70.50
22966;DHT22;11649;48.090;9.754;2024-02-21T15:12:18;11.60;69.30
22966;DHT22;11649;48.090;9.754;2024-02-21T15:14:45;11.70;71.20
22966;DHT22;11649;48.090;9.754;2024-02-21T15:17:12;11.60;70.00
22966;DHT22;11649;48.090;9.754;2024-02-21T15:19:39;11.30;71.70
22966;DHT22;11649;48.090;9.754;2024-02-21T15:22:10;11.30;71.40
22966;DHT22;11649;48.090;9.754;2024-02-21T15:24:38;11.30;70.40
22966;DHT22;11649;48.090;9.754;2024-02-21T15:27:06;11.10;70.30
22966;DHT22;11649;48.090;9.754;2024-02-21T15:29:34;10.30;71.60
22966;DHT22;11649;48.090;9.754;2024-02-21T15:32:02;11.00;72.10
22966;DHT22;11649;48.090;9.754;2024-02-21T15:34:30;11.00;72.40
22966;DHT22;11649;48.090;9.754;2024-02-21T15:36:58;11.00;72.30
22966;DHT22;11649;48.090;9.754;2024-02-21T15:39:25;10.60;73.50
22966;DHT22;11649;48.090;9.754;2024-02-21T15:41:55;10.70;74.50
22966;DHT22;11649;48.090;9.754;2024-02-21T15:44:25;10.70;74.50
22966;DHT22;11649;48.090;9.754;2024-02-21T15:46:52;10.70;74.70
22966;DHT22;11649;48.090;9.754;2024-02-21T15:49:20;10.70;74.30